createdAt,value
2019-05-06T00:00:26.753Z,9.15
2019-05-06T00:05:25.559Z,8.98
2019-05-06T00:07:55.132Z,8.98
2019-05-06T00:10:27.270Z,8.73
2019-05-06T00:12:57.238Z,9.18
2019-05-06T00:15:28.037Z,8.50
2019-05-06T00:17:57.535Z,8.78
2019-05-06T00:20:27.038Z,8.93
2019-05-06T00:22:58.099Z,8.78
2019-05-06T00:25:31.536Z,8.93
2019-05-06T00:28:19.117Z,8.70
2019-05-06T00:30:50.125Z,9.05
2019-05-06T00:33:19.474Z,8.77
2019-05-06T00:35:48.817Z,8.60
2019-05-06T00:38:18.164Z,9.77
2019-05-06T00:40:57.917Z,9.68
2019-05-06T00:43:27.280Z,8.53
2019-05-06T00:45:56.628Z,8.90
2019-05-06T00:48:26.046Z,9.53
2019-05-06T00:50:55.459Z,9.65
2019-05-06T00:53:29.379Z,9.35
2019-05-06T00:55:58.798Z,9.78
2019-05-06T00:58:28.167Z,10.60
2019-05-06T01:00:57.585Z,10.03
2019-05-06T01:03:26.942Z,10.20
2019-05-06T01:05:56.376Z,10.50
2019-05-06T01:08:27.645Z,9.65
2019-05-06T01:10:57.099Z,11.18
2019-05-06T01:13:28.095Z,9.83
2019-05-06T01:15:57.465Z,9.93
2019-05-06T01:18:26.821Z,10.25
2019-05-06T01:21:11.102Z,9.95
2019-05-06T01:23:43.944Z,9.75
2019-05-06T01:26:15.317Z,10.58
2019-05-06T01:28:45.615Z,11.10
2019-05-06T01:31:15.300Z,11.38
2019-05-06T01:33:45.729Z,12.03
2019-05-06T01:36:15.103Z,12.03
2019-05-06T01:38:46.307Z,11.80
2019-05-06T01:41:33.826Z,14.73
2019-05-06T01:44:04.225Z,16.73
2019-05-06T01:46:34.075Z,14.65
2019-05-06T01:49:04.211Z,15.95
2019-05-06T01:51:34.766Z,16.00
2019-05-06T01:54:04.583Z,17.83
2019-05-06T01:56:33.938Z,18.07
2019-05-06T01:59:04.586Z,18.57
2019-05-06T02:01:34.464Z,19.02
2019-05-06T02:04:05.927Z,19.67
2019-05-06T02:06:35.325Z,20.43
2019-05-06T02:09:09.546Z,19.30
2019-05-06T02:11:38.966Z,19.40
2019-05-06T02:14:08.424Z,18.45
2019-05-06T02:16:37.852Z,17.35
2019-05-06T02:19:07.194Z,17.40
2019-05-06T02:21:38.220Z,16.05
2019-05-06T02:24:24.411Z,16.30
2019-05-06T02:26:54.368Z,14.55
2019-05-06T02:29:29.216Z,14.73
2019-05-06T02:32:19.924Z,15.28
2019-05-06T02:34:36.709Z,14.47
2019-05-06T02:37:25.437Z,14.38
2019-05-06T02:39:55.006Z,14.50
2019-05-06T02:42:24.372Z,13.32
2019-05-06T02:44:54.364Z,12.90
2019-05-06T02:47:37.841Z,14.15
2019-05-06T02:50:09.166Z,12.90
2019-05-06T02:52:38.536Z,12.57
2019-05-06T02:55:08.123Z,13.98
2019-05-06T02:57:37.568Z,11.95
2019-05-06T03:00:13.144Z,13.58
2019-05-06T03:02:47.985Z,11.65
2019-05-06T03:05:14.860Z,11.67
2019-05-06T03:07:44.237Z,12.73
2019-05-06T03:10:15.835Z,11.80
2019-05-06T03:12:45.199Z,11.95
2019-05-06T03:15:16.861Z,11.90
2019-05-06T03:17:46.594Z,11.75
2019-05-06T03:20:37.206Z,11.78
2019-05-06T03:23:13.973Z,11.08
2019-05-06T03:25:44.131Z,11.48
2019-05-06T03:28:13.601Z,11.65
2019-05-06T03:30:45.810Z,10.85
2019-05-06T03:33:38.460Z,12.03
2019-05-06T03:36:00.386Z,11.10
2019-05-06T03:38:16.804Z,11.85
2019-05-06T03:40:46.196Z,12.07
2019-05-06T03:43:16.110Z,13.23
2019-05-06T03:45:53.501Z,11.78
2019-05-06T03:48:33.343Z,12.45
2019-05-06T03:51:04.030Z,12.30
2019-05-06T03:53:35.753Z,11.95
2019-05-06T03:56:06.111Z,11.93
2019-05-06T03:58:37.692Z,12.23
2019-05-06T04:01:07.069Z,11.48
2019-05-06T04:03:47.340Z,12.23
2019-05-06T04:06:09.149Z,11.77
2019-05-06T04:08:38.754Z,10.95
2019-05-06T04:11:09.661Z,12.30
2019-05-06T04:13:39.159Z,11.63
2019-05-06T04:16:22.810Z,11.97
2019-05-06T04:19:08.764Z,10.75
2019-05-06T04:21:58.149Z,10.68
2019-05-06T04:24:45.762Z,10.53
2019-05-06T04:27:29.560Z,10.93
2019-05-06T04:29:59.660Z,10.72
2019-05-06T04:32:29.023Z,11.88
2019-05-06T04:34:58.898Z,11.83
2019-05-06T04:37:28.344Z,11.43
2019-05-06T04:39:57.839Z,11.85
2019-05-06T04:42:27.218Z,11.33
2019-05-06T04:44:57.820Z,12.05
2019-05-06T04:47:27.169Z,10.60
2019-05-06T04:49:56.587Z,11.63
2019-05-06T04:52:26.320Z,12.05
2019-05-06T04:54:55.830Z,11.65
2019-05-06T04:57:25.264Z,11.45
2019-05-06T04:59:55.119Z,10.65
2019-05-06T05:02:24.559Z,12.80
2019-05-06T05:04:53.927Z,11.25
2019-05-06T05:07:23.404Z,10.90
2019-05-06T05:09:54.641Z,11.78
2019-05-06T05:12:25.643Z,11.47
2019-05-06T05:14:56.723Z,11.63
2019-05-06T05:17:39.615Z,10.53
2019-05-06T05:20:09.419Z,11.55
2019-05-06T05:22:39.034Z,10.63
2019-05-06T05:25:08.462Z,11.18
2019-05-06T05:27:37.910Z,11.15
2019-05-06T05:30:07.693Z,11.12
2019-05-06T05:32:37.124Z,12.13
2019-05-06T05:35:06.732Z,10.63
2019-05-06T05:37:37.298Z,11.17
2019-05-06T05:40:06.806Z,11.28
2019-05-06T05:42:42.269Z,11.53
2019-05-06T05:45:13.193Z,11.53
2019-05-06T05:47:42.632Z,11.03
2019-05-06T05:50:16.545Z,11.15
2019-05-06T05:52:45.911Z,10.08
2019-05-06T05:55:15.247Z,10.73
2019-05-06T05:57:44.671Z,12.40
2019-05-06T06:00:15.264Z,10.88
2019-05-06T06:02:44.645Z,11.05
2019-05-06T06:05:14.211Z,11.60
2019-05-06T06:07:43.667Z,12.80
2019-05-06T06:10:26.633Z,11.28
2019-05-06T06:12:57.693Z,10.88
2019-05-06T06:15:32.919Z,11.50
2019-05-06T06:18:22.434Z,11.40
2019-05-06T06:20:59.355Z,11.30
2019-05-06T06:23:36.442Z,11.90
2019-05-06T06:26:05.910Z,11.50
2019-05-06T06:28:35.418Z,12.45
2019-05-06T06:31:23.014Z,11.80
2019-05-06T06:33:54.222Z,11.88
2019-05-06T06:36:27.904Z,11.65
2019-05-06T06:39:02.222Z,11.95
2019-05-06T06:41:33.235Z,12.43
2019-05-06T06:44:04.288Z,11.03
2019-05-06T06:46:33.707Z,13.83
2019-05-06T06:49:03.436Z,12.15
2019-05-06T06:51:33.143Z,13.20
2019-05-06T06:54:02.691Z,11.93
2019-05-06T06:56:43.688Z,12.47
2019-05-06T06:59:24.442Z,11.83
2019-05-06T07:02:05.379Z,13.45
2019-05-06T07:04:36.401Z,12.80
2019-05-06T07:07:06.041Z,12.60
2019-05-06T07:09:35.413Z,12.28
2019-05-06T07:12:04.861Z,12.28
2019-05-06T07:14:36.200Z,12.18
2019-05-06T07:17:05.399Z,12.05
2019-05-06T07:19:36.401Z,11.80
2019-05-06T07:22:06.950Z,9.65
2019-05-06T07:24:36.725Z,11.87
2019-05-06T07:27:12.482Z,7.55
2019-05-06T07:29:48.120Z,6.50
2019-05-06T07:32:12.712Z,6.90
2019-05-06T07:34:42.174Z,5.37
2019-05-06T07:37:12.497Z,6.72
2019-05-06T07:39:43.102Z,5.65
2019-05-06T07:42:14.318Z,5.70
2019-05-06T07:44:52.908Z,7.37
2019-05-06T07:47:26.233Z,6.72
2019-05-06T07:49:55.875Z,6.30
2019-05-06T07:52:25.284Z,5.83
2019-05-06T07:54:54.648Z,5.15
2019-05-06T07:57:24.086Z,5.45
2019-05-06T07:59:53.474Z,6.55
2019-05-06T08:02:23.133Z,6.78
2019-05-06T08:04:53.260Z,8.23
2019-05-06T08:07:22.735Z,9.50
2019-05-06T08:09:53.066Z,9.98
2019-05-06T08:14:52.520Z,10.43
2019-05-06T08:17:23.678Z,10.35
2019-05-06T08:19:53.095Z,11.08
2019-05-06T08:22:42.268Z,11.15
2019-05-06T08:25:12.233Z,12.80
2019-05-06T08:27:42.741Z,12.68
2019-05-06T08:30:13.032Z,12.00
2019-05-06T08:32:42.624Z,13.60
2019-05-06T08:35:14.122Z,13.22
2019-05-06T08:37:44.710Z,13.30
2019-05-06T08:40:15.216Z,13.83
2019-05-06T08:42:44.847Z,14.35
2019-05-06T08:45:14.529Z,15.00
2019-05-06T08:47:46.711Z,14.75
2019-05-06T08:50:23.779Z,16.52
2019-05-06T08:52:57.726Z,15.70
2019-05-06T08:55:44.758Z,16.55
2019-05-06T08:58:15.183Z,14.65
2019-05-06T09:00:46.228Z,16.32
2019-05-06T09:03:15.635Z,16.85
2019-05-06T09:05:55.330Z,17.23
2019-05-06T09:08:25.136Z,17.95
2019-05-06T09:10:54.584Z,17.12
2019-05-06T09:13:23.963Z,17.63
2019-05-06T09:15:53.318Z,17.73
2019-05-06T09:18:24.101Z,16.37
2019-05-06T09:20:53.798Z,16.97
2019-05-06T09:23:27.431Z,16.67
2019-05-06T09:25:58.853Z,15.00
2019-05-06T09:28:45.179Z,17.83
2019-05-06T09:31:19.220Z,16.40
2019-05-06T09:33:53.146Z,17.50
2019-05-06T09:36:22.930Z,18.17
2019-05-06T09:38:53.081Z,18.62
2019-05-06T09:41:23.191Z,17.75
2019-05-06T09:43:52.917Z,19.32
2019-05-06T09:46:23.098Z,18.30
2019-05-06T09:49:12.847Z,17.75
2019-05-06T09:51:42.590Z,19.10
2019-05-06T09:54:19.819Z,20.17
2019-05-06T09:56:53.825Z,20.82
2019-05-06T09:59:23.480Z,20.02
2019-05-06T10:01:52.991Z,20.60
2019-05-06T10:04:22.322Z,19.10
2019-05-06T10:06:57.213Z,19.17
2019-05-06T10:09:24.882Z,17.17
2019-05-06T10:11:54.086Z,18.73
2019-05-06T10:14:23.604Z,18.82
2019-05-06T10:16:52.949Z,18.95
2019-05-06T10:19:22.799Z,18.55
2019-05-06T10:21:53.486Z,19.43
2019-05-06T10:24:23.082Z,18.70
2019-05-06T10:26:54.234Z,18.50
2019-05-06T10:29:28.266Z,18.13
2019-05-06T10:32:01.925Z,18.52
2019-05-06T10:34:32.792Z,17.23
2019-05-06T10:37:22.008Z,17.17
2019-05-06T10:39:57.217Z,16.52
2019-05-06T10:42:35.324Z,16.07
2019-05-06T10:45:12.367Z,17.10
2019-05-06T10:47:42.371Z,16.70
2019-05-06T10:50:12.558Z,15.85
2019-05-06T10:53:02.726Z,15.53
2019-05-06T10:55:33.390Z,16.55
2019-05-06T10:58:02.939Z,16.55
2019-05-06T11:00:33.216Z,18.60
2019-05-06T11:03:14.488Z,18.55
2019-05-06T11:05:43.117Z,19.98
2019-05-06T11:08:14.470Z,19.10
2019-05-06T11:10:45.316Z,17.60
2019-05-06T11:13:15.334Z,14.33
2019-05-06T11:15:44.986Z,14.47
2019-05-06T11:18:14.427Z,15.95
2019-05-06T11:20:44.256Z,17.23
2019-05-06T11:23:14.356Z,19.15
2019-05-06T11:25:44.083Z,21.42
2019-05-06T11:28:34.860Z,21.62
2019-05-06T11:31:04.070Z,20.40
2019-05-06T11:33:37.936Z,16.90
2019-05-06T11:36:09.050Z,16.00
2019-05-06T11:38:38.483Z,13.77
2019-05-06T11:41:07.882Z,13.22
2019-05-06T11:43:37.328Z,12.03
2019-05-06T11:46:06.683Z,12.30
2019-05-06T11:48:36.126Z,13.70
2019-05-06T11:51:07.240Z,13.25
2019-05-06T11:53:36.600Z,13.23
2019-05-06T11:56:06.138Z,14.85
2019-05-06T11:58:42.503Z,13.35
2019-05-06T12:01:13.477Z,12.33
2019-05-06T12:03:44.666Z,11.50
2019-05-06T12:06:14.096Z,11.05
2019-05-06T12:08:43.513Z,10.88
2019-05-06T12:11:12.927Z,11.08
2019-05-06T12:13:43.195Z,9.45
2019-05-06T12:16:14.164Z,9.03
2019-05-06T12:18:44.052Z,11.20
2019-05-06T12:21:19.095Z,10.23
2019-05-06T12:23:45.091Z,10.80
2019-05-06T12:26:14.599Z,10.53
2019-05-06T12:28:45.532Z,10.70
2019-05-06T12:31:14.892Z,12.37
2019-05-06T12:33:45.935Z,12.80
2019-05-06T12:36:17.159Z,12.43
2019-05-06T12:39:06.682Z,14.50
2019-05-06T12:41:37.238Z,17.57
2019-05-06T12:44:07.173Z,19.93
2019-05-06T12:46:44.069Z,20.10
2019-05-06T12:49:13.472Z,19.75
2019-05-06T12:51:45.770Z,22.02
2019-05-06T12:54:15.177Z,21.20
2019-05-06T12:56:44.636Z,21.48
2019-05-06T12:59:15.383Z,17.20
2019-05-06T13:01:45.813Z,17.40
2019-05-06T13:04:15.485Z,15.07
2019-05-06T13:06:48.840Z,14.70
2019-05-06T13:09:18.273Z,14.60
2019-05-06T13:11:48.690Z,14.65
2019-05-06T13:14:18.079Z,15.40
2019-05-06T13:16:47.596Z,15.13
2019-05-06T13:19:19.234Z,14.87
2019-05-06T13:24:18.015Z,14.03
2019-05-06T13:26:52.812Z,15.60
2019-05-06T13:29:24.531Z,15.57
2019-05-06T13:34:23.567Z,15.28
2019-05-06T13:36:53.594Z,15.83
2019-05-06T13:39:23.885Z,13.80
2019-05-06T13:41:53.769Z,14.83
2019-05-06T13:44:23.142Z,14.33
2019-05-06T13:46:53.511Z,12.35
2019-05-06T13:49:24.814Z,9.10
2019-05-06T13:52:06.827Z,6.95
2019-05-06T13:54:36.401Z,6.75
2019-05-06T13:57:05.761Z,7.33
2019-05-06T13:59:36.799Z,8.35
2019-05-06T14:02:08.375Z,9.03
2019-05-06T14:04:38.042Z,10.28
2019-05-06T14:07:07.625Z,11.78
2019-05-06T14:09:43.353Z,11.97
2019-05-06T14:12:11.449Z,13.30
2019-05-06T14:14:42.969Z,12.30
2019-05-06T14:17:12.705Z,11.48
2019-05-06T14:19:43.064Z,10.60
2019-05-06T14:22:12.776Z,11.68
2019-05-06T14:24:43.889Z,10.72
2019-05-06T14:27:14.996Z,12.00
2019-05-06T14:29:46.238Z,11.78
2019-05-06T14:32:15.606Z,12.93
2019-05-06T14:34:45.088Z,14.33
2019-05-06T14:37:14.529Z,14.45
2019-05-06T14:39:55.420Z,14.85
2019-05-06T14:42:19.272Z,15.18
2019-05-06T14:44:48.638Z,13.83
2019-05-06T14:47:23.290Z,13.48
2019-05-06T14:49:53.231Z,13.32
2019-05-06T14:52:22.906Z,10.47
2019-05-06T14:54:54.046Z,10.55
2019-05-06T14:57:24.574Z,10.73
2019-05-06T14:59:55.685Z,11.83
2019-05-06T15:02:27.167Z,11.90
2019-05-06T15:04:57.935Z,11.55
2019-05-06T15:07:27.380Z,12.47
2019-05-06T15:10:15.605Z,11.63
2019-05-06T15:12:27.866Z,7.50
2019-05-06T15:14:57.256Z,7.72
2019-05-06T15:17:26.716Z,8.58
2019-05-06T15:19:56.257Z,9.43
2019-05-06T15:22:25.622Z,9.98
2019-05-06T15:24:55.073Z,10.70
2019-05-06T15:27:26.069Z,8.10
2019-05-06T15:29:59.674Z,8.05
2019-05-06T15:32:30.705Z,7.10
2019-05-06T15:35:19.284Z,7.03
2019-05-06T15:37:53.147Z,6.25
2019-05-06T15:40:32.148Z,6.65
2019-05-06T15:42:53.414Z,5.60
2019-05-06T15:45:23.108Z,5.45
2019-05-06T15:47:52.565Z,5.53
2019-05-06T15:50:23.088Z,6.50
2019-05-06T15:53:01.994Z,6.45
2019-05-06T15:55:32.690Z,6.05
2019-05-06T15:58:03.498Z,6.20
2019-05-06T16:00:35.108Z,6.70
2019-05-06T16:03:04.634Z,6.50
2019-05-06T16:05:34.483Z,6.78
2019-05-06T16:08:05.477Z,6.65
2019-05-06T16:10:51.256Z,6.58
2019-05-06T16:13:07.505Z,5.90
2019-05-06T16:15:36.958Z,6.20
2019-05-06T16:18:06.342Z,6.35
2019-05-06T16:20:35.792Z,6.80
2019-05-06T16:23:13.179Z,6.87
2019-05-06T16:25:44.852Z,7.42
2019-05-06T16:28:13.816Z,8.00
2019-05-06T16:30:43.251Z,8.13
2019-05-06T16:33:14.977Z,7.78
2019-05-06T16:35:43.803Z,6.80
2019-05-06T16:38:13.321Z,6.93
2019-05-06T16:40:45.728Z,6.90
2019-05-06T16:43:16.743Z,6.87
2019-05-06T16:45:46.163Z,6.35
2019-05-06T16:48:15.609Z,6.80
2019-05-06T16:50:46.052Z,7.60
2019-05-06T16:53:15.536Z,7.20
2019-05-06T16:55:55.353Z,7.22
2019-05-06T16:58:42.915Z,7.17
2019-05-06T17:01:14.942Z,7.53
2019-05-06T17:03:47.030Z,7.72
2019-05-06T17:06:18.076Z,8.23
2019-05-06T17:08:47.510Z,6.80
2019-05-06T17:11:26.870Z,7.47
2019-05-06T17:13:48.118Z,7.07
2019-05-06T17:16:17.879Z,8.27
2019-05-06T17:18:47.364Z,7.72
2019-05-06T17:21:16.809Z,8.48
2019-05-06T17:23:46.308Z,8.05
2019-05-06T17:26:15.791Z,8.35
2019-05-06T17:28:54.292Z,8.03
2019-05-06T17:31:28.003Z,8.55
2019-05-06T17:34:15.697Z,6.70
2019-05-06T17:36:45.443Z,6.85
2019-05-06T17:39:14.899Z,6.67
2019-05-06T17:41:48.536Z,6.22
2019-05-06T17:44:15.328Z,6.80
2019-05-06T17:46:46.421Z,7.00
2019-05-06T17:49:22.952Z,8.17
2019-05-06T17:52:02.965Z,8.40
2019-05-06T17:54:32.659Z,9.23
2019-05-06T17:57:05.190Z,10.43
2019-05-06T18:02:19.309Z,10.68
2019-05-06T18:04:48.784Z,12.07
2019-05-06T18:07:18.148Z,12.18
2019-05-06T18:09:47.636Z,13.78
2019-05-06T18:12:18.720Z,13.05
2019-05-06T18:14:48.138Z,14.23
2019-05-06T18:17:17.577Z,14.13
2019-05-06T18:19:46.993Z,13.70
2019-05-06T18:22:16.355Z,13.85
2019-05-06T18:24:48.639Z,14.30
2019-05-06T18:27:18.101Z,15.05
2019-05-06T18:29:47.464Z,13.50
2019-05-06T18:32:17.275Z,14.98
2019-05-06T18:34:48.330Z,14.95
2019-05-06T18:37:17.676Z,14.90
2019-05-06T18:39:47.105Z,14.87
2019-05-06T18:42:20.155Z,16.30
2019-05-06T18:44:47.511Z,15.32
2019-05-06T18:47:16.936Z,16.93
2019-05-06T18:49:47.455Z,15.88
2019-05-06T18:52:16.963Z,15.85
2019-05-06T18:54:46.527Z,15.60
2019-05-06T18:57:15.891Z,16.17
2019-05-06T18:59:45.460Z,15.23
2019-05-06T19:02:15.139Z,15.00
2019-05-06T19:04:49.045Z,16.60
2019-05-06T19:07:18.427Z,15.88
2019-05-06T19:09:52.680Z,16.65
2019-05-06T19:12:30.506Z,16.82
2019-05-06T19:14:53.358Z,15.05
2019-05-06T19:17:22.892Z,15.63
2019-05-06T19:19:52.311Z,16.00
2019-05-06T19:22:22.933Z,15.10
2019-05-06T19:24:52.551Z,15.67
2019-05-06T19:27:24.646Z,15.28
2019-05-06T19:29:54.717Z,13.32
2019-05-06T19:32:25.249Z,12.20
2019-05-06T19:34:54.614Z,12.55
2019-05-06T19:37:24.295Z,11.47
2019-05-06T19:39:53.775Z,11.55
2019-05-06T19:42:23.168Z,13.03
2019-05-06T19:44:53.051Z,12.23
2019-05-06T19:47:22.572Z,11.33
2019-05-06T19:49:53.259Z,12.65
2019-05-06T19:52:24.973Z,12.73
2019-05-06T19:54:55.536Z,13.33
2019-05-06T19:57:25.079Z,12.90
2019-05-06T19:59:54.569Z,13.45
2019-05-06T20:02:25.810Z,12.95
2019-05-06T20:04:57.076Z,11.70
2019-05-06T20:07:30.985Z,11.67
2019-05-06T20:10:18.601Z,11.70
2019-05-06T20:13:04.856Z,12.10
2019-05-06T20:18:15.613Z,12.40
2019-05-06T20:20:46.682Z,11.60
2019-05-06T20:23:16.108Z,11.60
2019-05-06T20:25:45.480Z,11.30
2019-05-06T20:28:14.856Z,11.15
2019-05-06T20:30:44.235Z,11.33
2019-05-06T20:33:13.784Z,12.10
2019-05-06T20:35:43.461Z,11.43
2019-05-06T20:38:12.914Z,12.40
2019-05-06T20:40:43.128Z,11.38
2019-05-06T20:43:20.218Z,11.95
2019-05-06T20:45:44.082Z,11.43
2019-05-06T20:48:13.450Z,11.67
2019-05-06T20:50:43.071Z,11.53
2019-05-06T20:53:12.861Z,13.10
2019-05-06T20:55:43.444Z,12.58
2019-05-06T20:58:13.051Z,12.60
2019-05-06T21:00:43.139Z,13.03
2019-05-06T21:03:12.746Z,13.28
2019-05-06T21:05:43.470Z,13.10
2019-05-06T21:08:14.336Z,11.73
2019-05-06T21:10:44.105Z,12.85
2019-05-06T21:13:21.993Z,13.55
2019-05-06T21:15:44.653Z,13.67
2019-05-06T21:18:14.194Z,13.87
2019-05-06T21:20:43.771Z,12.45
2019-05-06T21:23:13.199Z,13.38
2019-05-06T21:25:43.726Z,13.28
2019-05-06T21:28:13.208Z,13.13
2019-05-06T21:30:42.984Z,14.07
2019-05-06T21:33:12.664Z,14.43
2019-05-06T21:35:42.513Z,13.40
2019-05-06T21:38:13.745Z,13.77
2019-05-06T21:40:43.519Z,14.47
2019-05-06T21:43:13.221Z,13.40
2019-05-06T21:45:42.954Z,14.10
2019-05-06T21:48:13.688Z,13.55
2019-05-06T21:50:43.354Z,14.10
2019-05-06T21:53:14.712Z,14.58
2019-05-06T21:55:43.876Z,14.03
2019-05-06T21:58:13.289Z,13.65
2019-05-06T22:00:44.558Z,13.78
2019-05-06T22:03:14.201Z,14.33
2019-05-06T22:05:43.576Z,13.15
2019-05-06T22:08:13.077Z,15.23
2019-05-06T22:10:42.545Z,16.10
2019-05-06T22:13:12.592Z,14.63
2019-05-06T22:15:44.491Z,14.43
2019-05-06T22:18:13.858Z,15.40
2019-05-06T22:21:02.951Z,15.08
2019-05-06T22:23:50.248Z,15.93
2019-05-06T22:26:19.744Z,15.00
2019-05-06T22:28:49.117Z,15.35
2019-05-06T22:31:18.660Z,14.75
2019-05-06T22:33:48.287Z,16.65
2019-05-06T22:36:17.643Z,16.15
2019-05-06T22:38:47.007Z,16.45
2019-05-06T22:41:16.355Z,15.80
2019-05-06T22:43:45.709Z,16.12
2019-05-06T22:46:18.128Z,16.27
2019-05-06T22:48:46.147Z,16.45
2019-05-06T22:51:15.527Z,15.95
2019-05-06T22:54:05.736Z,16.20
2019-05-06T22:56:35.098Z,16.77
2019-05-06T22:59:04.443Z,15.85
2019-05-06T23:01:35.482Z,16.05
2019-05-06T23:04:06.598Z,16.05
2019-05-06T23:06:36.042Z,15.53
2019-05-06T23:09:09.019Z,16.37
2019-05-06T23:11:38.919Z,16.17
2019-05-06T23:14:09.233Z,14.93
2019-05-06T23:16:38.646Z,16.32
2019-05-06T23:19:08.048Z,17.48
2019-05-06T23:21:37.390Z,17.00
2019-05-06T23:24:08.284Z,17.32
2019-05-06T23:26:38.754Z,17.40
2019-05-06T23:29:08.202Z,17.60
2019-05-06T23:31:37.819Z,18.00
2019-05-06T23:34:07.188Z,17.80
2019-05-06T23:36:58.946Z,17.12
2019-05-06T23:40:06.094Z,17.07
2019-05-06T23:43:12.642Z,17.55
2019-05-06T23:46:18.487Z,17.55
2019-05-06T23:49:24.058Z,17.42
2019-05-06T23:52:31.889Z,17.55
2019-05-06T23:55:37.200Z,17.32
2019-05-06T23:58:05.503Z,17.52
